createdAt,value
2018-08-27T00:00:30.386Z,23.25
2018-08-27T00:01:39.537Z,23.23
2018-08-27T00:02:48.944Z,23.28
2018-08-27T00:03:58.638Z,23.27
2018-08-27T00:05:08.314Z,23.32
2018-08-27T00:06:17.475Z,23.31
2018-08-27T00:07:26.887Z,23.23
2018-08-27T00:08:36.821Z,23.28
2018-08-27T00:09:46.221Z,23.23
2018-08-27T00:10:55.112Z,23.16
2018-08-27T00:12:04.285Z,23.16
2018-08-27T00:13:13.454Z,23.17
2018-08-27T00:14:23.387Z,23.15
2018-08-27T00:15:33.057Z,23.27
2018-08-27T00:16:42.732Z,23.25
2018-08-27T00:17:52.411Z,23.19
2018-08-27T00:19:01.566Z,23.19
2018-08-27T00:20:10.730Z,23.16
2018-08-27T00:21:19.646Z,23.13
2018-08-27T00:22:29.569Z,23.19
2018-08-27T00:23:38.986Z,23.13
2018-08-27T00:24:48.141Z,23.17
2018-08-27T00:25:57.804Z,23.13
2018-08-27T00:27:06.969Z,23.16
2018-08-27T00:28:16.142Z,23.13
2018-08-27T00:29:26.091Z,23.15
2018-08-27T00:30:35.507Z,23.16
2018-08-27T00:31:44.913Z,23.19
2018-08-27T00:32:54.579Z,23.2
2018-08-27T00:34:03.745Z,23.17
2018-08-27T00:35:13.418Z,23.15
2018-08-27T00:36:22.064Z,23.2
2018-08-27T00:37:30.692Z,23.2
2018-08-27T00:38:40.095Z,23.16
2018-08-27T00:39:49.258Z,23.16
2018-08-27T00:40:58.173Z,23.16
2018-08-27T00:42:08.111Z,23.16
2018-08-27T00:43:17.782Z,23.19
2018-08-27T00:44:26.699Z,23.13
2018-08-27T00:45:35.591Z,23.19
2018-08-27T00:46:45.532Z,23.15
2018-08-27T00:47:55.210Z,23.17
2018-08-27T00:49:04.374Z,23.15
2018-08-27T00:50:14.061Z,23.15
2018-08-27T00:51:23.219Z,23.02
2018-08-27T00:52:32.642Z,23.09
2018-08-27T00:53:42.573Z,23.07
2018-08-27T00:54:51.995Z,23.1
2018-08-27T00:56:01.197Z,23.07
2018-08-27T00:57:10.871Z,23.09
2018-08-27T00:58:20.028Z,23.05
2018-08-27T00:59:29.460Z,23.1
2018-08-27T01:00:39.147Z,23.02
2018-08-27T01:01:48.572Z,23.05
2018-08-27T01:02:58.254Z,23.04
2018-08-27T01:04:07.919Z,23.13
2018-08-27T01:05:17.344Z,23.09
2018-08-27T01:06:26.766Z,23.05
2018-08-27T01:07:36.177Z,23.01
2018-08-27T01:08:45.858Z,23.09
2018-08-27T01:09:55.024Z,23.05
2018-08-27T01:11:04.189Z,23.05
2018-08-27T01:12:13.856Z,23.05
2018-08-27T01:13:23.072Z,23.01
2018-08-27T01:14:32.428Z,23.04
2018-08-27T01:15:41.834Z,23.04
2018-08-27T01:16:51.517Z,23.07
2018-08-27T01:18:00.939Z,23.04
2018-08-27T01:19:10.348Z,23.05
2018-08-27T01:20:20.026Z,23.05
2018-08-27T01:21:29.434Z,23.07
2018-08-27T01:22:38.704Z,23.1
2018-08-27T01:23:48.002Z,23.04
2018-08-27T01:24:57.743Z,23.01
2018-08-27T01:26:07.431Z,23.07
2018-08-27T01:27:16.600Z,23.04
2018-08-27T01:28:25.753Z,23.01
2018-08-27T01:29:34.912Z,23.02
2018-08-27T01:30:44.340Z,23
2018-08-27T01:31:54.008Z,23.01
2018-08-27T01:33:03.687Z,23.05
2018-08-27T01:34:13.364Z,23.05
2018-08-27T01:35:22.773Z,23
2018-08-27T01:36:32.190Z,23
2018-08-27T01:37:41.601Z,23.02
2018-08-27T01:38:51.008Z,23.02
2018-08-27T01:40:00.430Z,22.98
2018-08-27T01:41:09.865Z,23
2018-08-27T01:42:19.542Z,23
2018-08-27T01:43:28.690Z,23.01
2018-08-27T01:44:37.860Z,22.94
2018-08-27T01:45:47.286Z,22.98
2018-08-27T01:46:56.696Z,23
2018-08-27T01:48:05.857Z,22.98
2018-08-27T01:49:15.013Z,22.92
2018-08-27T01:50:24.435Z,22.95
2018-08-27T01:51:33.855Z,22.98
2018-08-27T01:52:43.017Z,22.97
2018-08-27T01:53:52.435Z,22.9
2018-08-27T01:55:01.597Z,22.91
2018-08-27T01:56:11.272Z,22.95
2018-08-27T01:57:20.439Z,22.88
2018-08-27T01:58:29.861Z,22.98
2018-08-27T01:59:39.535Z,22.97
2018-08-27T02:00:48.955Z,22.94
2018-08-27T02:01:58.887Z,22.92
2018-08-27T02:03:08.573Z,22.94
2018-08-27T02:04:18.259Z,22.97
2018-08-27T02:05:27.666Z,22.94
2018-08-27T02:06:37.338Z,22.92
2018-08-27T02:07:46.743Z,22.92
2018-08-27T02:08:56.153Z,22.92
2018-08-27T02:10:06.087Z,22.91
2018-08-27T02:11:15.751Z,22.92
2018-08-27T02:12:24.920Z,22.95
2018-08-27T02:13:34.324Z,22.92
2018-08-27T02:14:43.774Z,22.92
2018-08-27T02:15:53.174Z,23
2018-08-27T02:17:02.846Z,22.94
2018-08-27T02:18:12.284Z,22.97
2018-08-27T02:19:21.958Z,22.97
2018-08-27T02:20:31.373Z,22.92
2018-08-27T02:21:40.543Z,22.9
2018-08-27T02:22:50.215Z,22.91
2018-08-27T02:23:59.670Z,22.94
2018-08-27T02:25:09.333Z,22.94
2018-08-27T02:26:18.232Z,22.92
2018-08-27T02:27:28.162Z,22.91
2018-08-27T02:28:37.829Z,22.97
2018-08-27T02:29:46.977Z,22.91
2018-08-27T02:30:56.661Z,22.91
2018-08-27T02:32:06.067Z,22.95
2018-08-27T02:33:15.758Z,22.94
2018-08-27T02:34:24.930Z,22.95
2018-08-27T02:35:34.592Z,22.91
2018-08-27T02:36:44.016Z,22.88
2018-08-27T02:37:53.713Z,22.97
2018-08-27T02:39:02.888Z,22.88
2018-08-27T02:40:12.304Z,22.83
2018-08-27T02:41:21.453Z,22.86
2018-08-27T02:42:31.147Z,22.82
2018-08-27T02:43:39.784Z,22.77
2018-08-27T02:44:48.673Z,22.77
2018-08-27T02:45:58.350Z,22.76
2018-08-27T02:47:07.759Z,22.77
2018-08-27T02:48:17.435Z,22.72
2018-08-27T02:49:26.848Z,22.79
2018-08-27T02:50:36.263Z,22.68
2018-08-27T02:51:45.433Z,22.67
2018-08-27T02:52:54.858Z,22.7
2018-08-27T02:54:04.277Z,22.76
2018-08-27T02:55:13.453Z,22.72
2018-08-27T02:56:22.359Z,22.77
2018-08-27T02:57:31.769Z,22.7
2018-08-27T02:58:40.932Z,22.64
2018-08-27T02:59:50.587Z,22.75
2018-08-27T03:01:00.262Z,22.7
2018-08-27T03:02:09.939Z,22.72
2018-08-27T03:03:19.127Z,22.72
2018-08-27T03:04:28.536Z,22.7
2018-08-27T03:05:38.457Z,22.75
2018-08-27T03:06:47.625Z,22.72
2018-08-27T03:07:56.784Z,22.67
2018-08-27T03:09:05.948Z,22.68
2018-08-27T03:10:15.366Z,22.7
2018-08-27T03:11:24.806Z,22.72
2018-08-27T03:12:34.215Z,22.73
2018-08-27T03:13:43.875Z,22.75
2018-08-27T03:14:53.297Z,22.73
2018-08-27T03:16:02.195Z,22.68
2018-08-27T03:17:11.628Z,22.67
2018-08-27T03:18:20.937Z,22.72
2018-08-27T03:19:30.756Z,22.62
2018-08-27T03:20:40.437Z,22.65
2018-08-27T03:21:49.869Z,22.72
2018-08-27T03:22:59.559Z,22.75
2018-08-27T03:24:08.721Z,22.62
2018-08-27T03:25:18.669Z,22.67
2018-08-27T03:26:27.833Z,22.67
2018-08-27T03:27:36.997Z,22.7
2018-08-27T03:28:46.928Z,22.68
2018-08-27T03:29:56.088Z,22.73
2018-08-27T03:31:05.766Z,22.65
2018-08-27T03:32:15.027Z,22.73
2018-08-27T03:33:24.440Z,22.68
2018-08-27T03:34:33.857Z,22.72
2018-08-27T03:35:43.786Z,22.72
2018-08-27T03:36:53.739Z,22.68
2018-08-27T03:38:03.464Z,22.7
2018-08-27T03:39:13.150Z,22.62
2018-08-27T03:40:22.044Z,22.61
2018-08-27T03:41:31.739Z,22.68
2018-08-27T03:42:41.156Z,22.64
2018-08-27T03:43:50.596Z,22.58
2018-08-27T03:44:59.502Z,22.7
2018-08-27T03:46:08.925Z,22.6
2018-08-27T03:47:18.114Z,22.6
2018-08-27T03:48:27.384Z,22.7
2018-08-27T03:49:36.885Z,22.73
2018-08-27T03:50:46.571Z,22.7
2018-08-27T03:51:55.739Z,22.65
2018-08-27T03:53:04.902Z,22.57
2018-08-27T03:54:14.309Z,22.57
2018-08-27T03:55:23.476Z,22.61
2018-08-27T03:56:33.143Z,22.61
2018-08-27T03:57:42.306Z,22.58
2018-08-27T03:58:52.044Z,22.6
2018-08-27T04:00:01.477Z,22.67
2018-08-27T04:01:11.156Z,22.67
2018-08-27T04:02:20.086Z,22.58
2018-08-27T04:03:29.231Z,22.57
2018-08-27T04:04:38.387Z,22.55
2018-08-27T04:05:47.537Z,22.57
2018-08-27T04:06:56.960Z,22.67
2018-08-27T04:08:06.380Z,22.58
2018-08-27T04:09:16.056Z,22.67
2018-08-27T04:10:25.227Z,22.7
2018-08-27T04:11:34.657Z,22.58
2018-08-27T04:12:44.085Z,22.61
2018-08-27T04:13:53.256Z,22.62
2018-08-27T04:15:03.203Z,22.58
2018-08-27T04:16:12.366Z,22.62
2018-08-27T04:17:21.548Z,22.57
2018-08-27T04:18:31.224Z,22.61
2018-08-27T04:19:41.159Z,22.58
2018-08-27T04:20:50.831Z,22.55
2018-08-27T04:22:00.045Z,22.58
2018-08-27T04:23:09.469Z,22.68
2018-08-27T04:24:18.900Z,22.64
2018-08-27T04:25:28.596Z,22.64
2018-08-27T04:26:38.267Z,22.57
2018-08-27T04:27:47.699Z,22.62
2018-08-27T04:28:56.823Z,22.62
2018-08-27T04:30:06.515Z,22.61
2018-08-27T04:31:16.184Z,22.57
2018-08-27T04:32:25.615Z,22.57
2018-08-27T04:33:34.780Z,22.61
2018-08-27T04:34:44.253Z,22.61
2018-08-27T04:35:53.783Z,22.62
2018-08-27T04:37:02.975Z,22.55
2018-08-27T04:38:12.640Z,22.67
2018-08-27T04:39:22.085Z,22.64
2018-08-27T04:40:31.752Z,22.54
2018-08-27T04:41:40.918Z,22.57
2018-08-27T04:42:50.080Z,22.52
2018-08-27T04:43:59.311Z,22.6
2018-08-27T04:45:08.589Z,22.68
2018-08-27T04:46:18.603Z,22.62
2018-08-27T04:47:27.531Z,22.6
2018-08-27T04:48:36.954Z,22.62
2018-08-27T04:49:46.102Z,22.52
2018-08-27T04:50:55.515Z,22.62
2018-08-27T04:52:04.411Z,22.61
2018-08-27T04:53:13.566Z,22.55
2018-08-27T04:54:23.259Z,22.58
2018-08-27T04:55:32.693Z,22.61
2018-08-27T04:56:42.121Z,22.64
2018-08-27T04:57:51.028Z,22.58
2018-08-27T04:59:00.696Z,22.6
2018-08-27T05:00:09.871Z,22.61
2018-08-27T05:01:19.287Z,22.58
2018-08-27T05:02:28.819Z,22.68
2018-08-27T05:03:38.497Z,22.67
2018-08-27T05:04:47.900Z,22.72
2018-08-27T05:05:57.581Z,22.73
2018-08-27T05:07:07.551Z,22.7
2018-08-27T05:08:16.717Z,22.64
2018-08-27T05:09:26.133Z,22.7
2018-08-27T05:10:35.809Z,22.67
2018-08-27T05:11:44.709Z,22.75
2018-08-27T05:12:54.123Z,22.77
2018-08-27T05:14:03.275Z,22.8
2018-08-27T05:15:12.699Z,22.7
2018-08-27T05:16:21.847Z,22.76
2018-08-27T05:17:31.547Z,22.75
2018-08-27T05:18:40.950Z,22.82
2018-08-27T05:19:50.672Z,22.82
2018-08-27T05:20:59.854Z,22.82
2018-08-27T05:22:09.279Z,22.82
2018-08-27T05:23:18.180Z,22.83
2018-08-27T05:24:27.327Z,22.85
2018-08-27T05:25:36.749Z,22.82
2018-08-27T05:26:45.922Z,22.82
2018-08-27T05:27:55.859Z,22.82
2018-08-27T05:29:05.291Z,22.85
2018-08-27T05:30:14.715Z,22.85
2018-08-27T05:31:24.378Z,22.86
2018-08-27T05:32:33.877Z,22.86
2018-08-27T05:33:43.035Z,22.91
2018-08-27T05:34:52.200Z,22.9
2018-08-27T05:36:01.627Z,22.88
2018-08-27T05:37:11.307Z,22.88
2018-08-27T05:38:21.357Z,22.88
2018-08-27T05:39:30.294Z,22.92
2018-08-27T05:40:39.721Z,22.9
2018-08-27T05:41:49.413Z,22.86
2018-08-27T05:42:58.312Z,22.92
2018-08-27T05:44:08.157Z,22.94
2018-08-27T05:45:17.847Z,22.92
2018-08-27T05:46:26.516Z,22.9
2018-08-27T05:47:36.533Z,22.91
2018-08-27T05:48:46.276Z,22.94
2018-08-27T05:49:55.192Z,22.98
2018-08-27T05:51:04.978Z,22.97
2018-08-27T05:52:14.598Z,22.9
2018-08-27T05:53:24.914Z,22.95
2018-08-27T05:54:34.128Z,22.9
2018-08-27T05:55:43.592Z,22.97
2018-08-27T05:56:53.019Z,22.98
2018-08-27T05:58:02.212Z,22.94
2018-08-27T05:59:11.097Z,22.92
2018-08-27T06:00:20.525Z,22.97
2018-08-27T06:01:30.092Z,22.97
2018-08-27T06:02:39.410Z,22.97
2018-08-27T06:03:48.581Z,22.95
2018-08-27T06:04:58.028Z,23.04
2018-08-27T06:06:07.707Z,23.09
2018-08-27T06:07:17.122Z,23.02
2018-08-27T06:08:26.546Z,23.05
2018-08-27T06:09:36.485Z,23.04
2018-08-27T06:10:45.937Z,23.07
2018-08-27T06:11:55.078Z,23.05
2018-08-27T06:13:04.495Z,23.07
2018-08-27T06:14:13.389Z,23.12
2018-08-27T06:15:22.547Z,23.04
2018-08-27T06:16:32.172Z,23.1
2018-08-27T06:17:41.751Z,23.16
2018-08-27T06:18:50.912Z,23.15
2018-08-27T06:20:00.082Z,23.16
2018-08-27T06:21:09.495Z,23.19
2018-08-27T06:22:19.813Z,23.16
2018-08-27T06:23:29.204Z,23.15
2018-08-27T06:24:38.639Z,23.2
2018-08-27T06:25:47.552Z,23.13
2018-08-27T06:26:57.243Z,23.17
2018-08-27T06:28:06.932Z,23.2
2018-08-27T06:29:16.104Z,23.17
2018-08-27T06:30:25.288Z,23.17
2018-08-27T06:31:34.996Z,23.17
2018-08-27T06:32:44.955Z,23.17
2018-08-27T06:33:54.384Z,23.23
2018-08-27T06:35:03.908Z,23.19
2018-08-27T06:36:12.843Z,23.23
2018-08-27T06:37:22.261Z,23.25
2018-08-27T06:38:31.423Z,23.15
2018-08-27T06:39:41.134Z,23.19
2018-08-27T06:40:50.301Z,23.13
2018-08-27T06:41:59.717Z,23.2
2018-08-27T06:43:08.866Z,23.16
2018-08-27T06:44:17.779Z,23.23
2018-08-27T06:45:27.209Z,23.13
2018-08-27T06:46:36.911Z,23.25
2018-08-27T06:47:46.594Z,23.25
2018-08-27T06:48:55.760Z,23.22
2018-08-27T06:50:04.952Z,23.2
2018-08-27T06:51:14.126Z,23.23
2018-08-27T06:52:23.543Z,23.2
2018-08-27T06:53:33.227Z,23.22
2018-08-27T06:54:42.384Z,23.23
2018-08-27T06:55:52.071Z,23.28
2018-08-27T06:57:00.983Z,23.23
2018-08-27T06:58:10.430Z,23.28
2018-08-27T06:59:19.855Z,23.25
2018-08-27T07:00:29.275Z,23.19
2018-08-27T07:01:38.448Z,23.27
2018-08-27T07:02:47.856Z,23.15
2018-08-27T07:03:57.556Z,23.17
2018-08-27T07:05:06.718Z,23.17
2018-08-27T07:06:15.890Z,23.16
2018-08-27T07:07:25.559Z,23.27
2018-08-27T07:08:35.610Z,23.27
2018-08-27T07:09:44.790Z,23.19
2018-08-27T07:10:54.017Z,23.12
2018-08-27T07:12:03.706Z,23.27
2018-08-27T07:13:13.390Z,23.27
2018-08-27T07:14:22.300Z,23.15
2018-08-27T07:15:30.981Z,23.25
2018-08-27T07:16:40.398Z,23.16
2018-08-27T07:17:49.823Z,23.15
2018-08-27T07:18:59.248Z,23.22
2018-08-27T07:20:08.471Z,23.16
2018-08-27T07:21:17.974Z,23.2
2018-08-27T07:22:27.405Z,23.27
2018-08-27T07:23:36.823Z,23.28
2018-08-27T07:24:46.254Z,23.23
2018-08-27T07:25:56.211Z,23.27
2018-08-27T07:27:05.897Z,23.27
2018-08-27T07:28:15.838Z,23.33
2018-08-27T07:29:25.247Z,23.31
2018-08-27T07:30:34.425Z,23.31
2018-08-27T07:31:43.848Z,23.32
2018-08-27T07:32:53.525Z,23.27
2018-08-27T07:34:03.241Z,23.32
2018-08-27T07:35:12.671Z,23.2
2018-08-27T07:36:22.872Z,23.27
2018-08-27T07:37:32.310Z,23.23
2018-08-27T07:38:41.762Z,23.28
2018-08-27T07:39:51.683Z,23.27
2018-08-27T07:41:01.367Z,23.31
2018-08-27T07:42:11.046Z,23.35
2018-08-27T07:43:20.781Z,23.27
2018-08-27T07:44:29.705Z,23.27
2018-08-27T07:45:39.133Z,23.25
2018-08-27T07:46:48.555Z,23.25
2018-08-27T07:47:58.498Z,23.23
2018-08-27T07:49:07.672Z,23.23
2018-08-27T07:50:17.080Z,23.2
2018-08-27T07:51:27.107Z,23.23
2018-08-27T07:52:36.784Z,23.25
2018-08-27T07:53:45.953Z,23.25
2018-08-27T07:54:55.135Z,23.31
2018-08-27T07:56:04.809Z,23.27
2018-08-27T07:57:14.222Z,23.2
2018-08-27T07:58:24.022Z,23.2
2018-08-27T07:59:34.183Z,23.22
2018-08-27T08:00:43.857Z,23.33
2018-08-27T08:01:52.764Z,23.22
2018-08-27T08:03:01.922Z,23.38
2018-08-27T08:04:11.637Z,23.35
2018-08-27T08:05:21.337Z,23.27
2018-08-27T08:06:31.004Z,23.4
2018-08-27T08:07:40.686Z,23.35
2018-08-27T08:08:50.383Z,23.25
2018-08-27T08:09:59.802Z,23.4
2018-08-27T08:11:09.480Z,23.32
2018-08-27T08:12:19.172Z,23.28
2018-08-27T08:13:28.592Z,23.39
2018-08-27T08:14:37.998Z,23.32
2018-08-27T08:15:47.425Z,23.39
2018-08-27T08:16:57.360Z,23.32
2018-08-27T08:18:06.791Z,23.42
2018-08-27T08:19:15.724Z,23.38
2018-08-27T08:20:24.626Z,23.42
2018-08-27T08:21:34.306Z,23.4
2018-08-27T08:22:43.840Z,23.43
2018-08-27T08:23:53.317Z,23.39
2018-08-27T08:25:02.750Z,23.38
2018-08-27T08:26:12.436Z,23.4
2018-08-27T08:27:21.342Z,23.39
2018-08-27T08:28:30.770Z,23.32
2018-08-27T08:29:40.220Z,23.33
2018-08-27T08:30:49.397Z,23.39
2018-08-27T08:31:58.821Z,23.39
2018-08-27T08:33:08.707Z,23.36
2018-08-27T08:34:18.824Z,23.39
2018-08-27T08:35:28.253Z,23.36
2018-08-27T08:36:37.434Z,23.36
2018-08-27T08:37:46.618Z,23.38
2018-08-27T08:38:56.057Z,23.39
2018-08-27T08:40:06.270Z,23.35
2018-08-27T08:41:16.114Z,23.36
2018-08-27T08:42:25.539Z,23.38
2018-08-27T08:43:35.223Z,23.38
2018-08-27T08:44:44.933Z,23.38
2018-08-27T08:45:54.362Z,23.35
2018-08-27T08:47:04.060Z,23.36
2018-08-27T08:48:13.504Z,23.39
2018-08-27T08:49:23.189Z,23.33
2018-08-27T08:50:32.356Z,23.39
2018-08-27T08:51:42.034Z,23.42
2018-08-27T08:52:51.716Z,23.35
2018-08-27T08:54:01.147Z,23.38
2018-08-27T08:55:10.827Z,23.43
2018-08-27T08:56:20.233Z,23.39
2018-08-27T08:57:29.697Z,23.36
2018-08-27T08:58:39.125Z,23.38
2018-08-27T08:59:48.834Z,23.39
2018-08-27T09:00:58.289Z,23.35
2018-08-27T09:02:06.937Z,23.33
2018-08-27T09:03:16.394Z,23.42
2018-08-27T09:04:25.820Z,23.39
2018-08-27T09:05:34.973Z,23.43
2018-08-27T09:06:44.396Z,23.46
2018-08-27T09:07:53.909Z,23.43
2018-08-27T09:09:03.884Z,23.42
2018-08-27T09:10:14.000Z,23.4
2018-08-27T09:11:23.162Z,23.46
2018-08-27T09:12:32.575Z,23.43
2018-08-27T09:13:42.286Z,23.46
2018-08-27T09:14:51.455Z,23.43
2018-08-27T09:16:00.877Z,23.4
2018-08-27T09:17:10.829Z,23.36
2018-08-27T09:18:20.433Z,23.48
2018-08-27T09:19:29.866Z,23.46
2018-08-27T09:20:39.293Z,23.39
2018-08-27T09:21:48.473Z,23.4
2018-08-27T09:22:57.638Z,23.4
2018-08-27T09:24:07.346Z,23.47
2018-08-27T09:25:16.549Z,23.5
2018-08-27T09:26:25.464Z,23.47
2018-08-27T09:27:35.137Z,23.43
2018-08-27T09:28:44.565Z,23.39
2018-08-27T09:29:53.740Z,23.4
2018-08-27T09:31:02.992Z,23.46
2018-08-27T09:32:12.169Z,23.48
2018-08-27T09:33:22.261Z,23.47
2018-08-27T09:34:31.442Z,23.47
2018-08-27T09:35:40.343Z,23.47
2018-08-27T09:36:50.288Z,23.46
2018-08-27T09:38:00.167Z,23.46
2018-08-27T09:39:09.600Z,23.43
2018-08-27T09:40:19.273Z,23.43
2018-08-27T09:41:29.358Z,23.46
2018-08-27T09:42:38.329Z,23.48
2018-08-27T09:43:47.761Z,23.51
2018-08-27T09:44:57.173Z,23.48
2018-08-27T09:46:06.881Z,23.53
2018-08-27T09:47:16.312Z,23.5
2018-08-27T09:48:25.744Z,23.4
2018-08-27T09:49:35.167Z,23.53
2018-08-27T09:50:44.335Z,23.48
2018-08-27T09:51:53.268Z,23.53
2018-08-27T09:53:02.269Z,23.51
2018-08-27T09:54:11.238Z,23.51
2018-08-27T09:55:20.143Z,23.53
2018-08-27T09:56:29.330Z,23.55
2018-08-27T09:57:39.275Z,23.5
2018-08-27T09:58:48.231Z,23.51
2018-08-27T09:59:58.234Z,23.5
2018-08-27T10:01:07.666Z,23.47
2018-08-27T10:02:17.089Z,23.47
2018-08-27T10:03:27.024Z,23.5
2018-08-27T10:04:36.192Z,23.51
2018-08-27T10:05:45.640Z,23.47
2018-08-27T10:06:54.798Z,23.47
2018-08-27T10:08:04.230Z,23.5
2018-08-27T10:09:14.020Z,23.53
2018-08-27T10:10:23.716Z,23.55
2018-08-27T10:11:33.136Z,23.47
2018-08-27T10:12:43.072Z,23.5
2018-08-27T10:13:52.769Z,23.51
2018-08-27T10:15:01.792Z,23.54
2018-08-27T10:16:11.720Z,23.55
2018-08-27T10:17:21.140Z,23.54
2018-08-27T10:18:30.301Z,23.51
2018-08-27T10:19:39.723Z,23.5
2018-08-27T10:20:49.198Z,23.54
2018-08-27T10:21:58.895Z,23.55
2018-08-27T10:23:08.440Z,23.58
2018-08-27T10:24:17.871Z,23.51
2018-08-27T10:25:27.560Z,23.57
2018-08-27T10:26:37.573Z,23.55
2018-08-27T10:27:46.951Z,23.54
2018-08-27T10:28:56.125Z,23.48
2018-08-27T10:30:05.972Z,23.57
2018-08-27T10:31:15.662Z,23.57
2018-08-27T10:32:25.349Z,23.54
2018-08-27T10:33:34.502Z,23.55
2018-08-27T10:34:43.416Z,23.61
2018-08-27T10:35:53.102Z,23.51
2018-08-27T10:37:02.531Z,23.61
2018-08-27T10:38:12.558Z,23.58
2018-08-27T10:39:21.976Z,23.55
2018-08-27T10:40:31.135Z,23.6
2018-08-27T10:41:40.542Z,23.61
2018-08-27T10:42:50.125Z,23.63
2018-08-27T10:44:00.285Z,23.61
2018-08-27T10:45:09.432Z,23.57
2018-08-27T10:46:18.860Z,23.57
2018-08-27T10:47:28.279Z,23.58
2018-08-27T10:48:37.766Z,23.6
2018-08-27T10:49:46.669Z,23.61
2018-08-27T10:50:55.577Z,23.63
2018-08-27T10:52:05.271Z,23.58
2018-08-27T10:53:14.696Z,23.63
2018-08-27T10:54:24.399Z,23.55
2018-08-27T10:55:33.567Z,23.58
2018-08-27T10:56:43.003Z,23.6
2018-08-27T10:57:52.438Z,23.6
2018-08-27T10:59:01.872Z,23.57
2018-08-27T11:00:11.045Z,23.6
2018-08-27T11:01:20.750Z,23.65
2018-08-27T11:02:29.917Z,23.68
2018-08-27T11:03:39.855Z,23.6
2018-08-27T11:04:49.291Z,23.63
2018-08-27T11:05:58.476Z,23.66
2018-08-27T11:07:07.888Z,23.58
2018-08-27T11:08:17.049Z,23.63
2018-08-27T11:09:26.730Z,23.58
2018-08-27T11:10:36.007Z,23.57
2018-08-27T11:11:45.331Z,23.63
2018-08-27T11:12:53.980Z,23.58
2018-08-27T11:14:03.386Z,23.65
2018-08-27T11:15:13.352Z,23.57
2018-08-27T11:16:23.023Z,23.66
2018-08-27T11:17:32.173Z,23.58
2018-08-27T11:18:41.347Z,23.63
2018-08-27T11:19:51.169Z,23.61
2018-08-27T11:21:00.852Z,23.65
2018-08-27T11:22:10.273Z,23.68
2018-08-27T11:23:19.697Z,23.66
2018-08-27T11:24:28.600Z,23.69
2018-08-27T11:25:38.010Z,23.61
2018-08-27T11:26:48.265Z,23.63
2018-08-27T11:27:58.041Z,23.69
2018-08-27T11:29:07.724Z,23.61
2018-08-27T11:30:16.433Z,23.65
2018-08-27T11:31:26.163Z,23.63
2018-08-27T11:32:35.356Z,23.57
2018-08-27T11:33:45.031Z,23.7
2018-08-27T11:34:54.457Z,23.69
2018-08-27T11:36:03.113Z,23.68
2018-08-27T11:37:12.022Z,23.61
2018-08-27T11:38:21.464Z,23.68
2018-08-27T11:39:31.410Z,23.63
2018-08-27T11:40:40.827Z,23.66
2018-08-27T11:41:50.520Z,23.65
2018-08-27T11:42:59.953Z,23.63
2018-08-27T11:44:09.375Z,23.63
2018-08-27T11:45:18.859Z,23.65
2018-08-27T11:46:28.290Z,23.69
2018-08-27T11:47:38.214Z,23.65
2018-08-27T11:48:47.641Z,23.65
2018-08-27T11:49:57.064Z,23.63
2018-08-27T11:51:06.647Z,23.7
2018-08-27T11:52:16.242Z,23.63
2018-08-27T11:53:25.930Z,23.63
2018-08-27T11:54:35.616Z,23.66
2018-08-27T11:55:44.518Z,23.72
2018-08-27T11:56:54.008Z,23.68
2018-08-27T11:58:03.223Z,23.65
2018-08-27T11:59:12.930Z,23.6
2018-08-27T12:00:22.354Z,23.69
2018-08-27T12:01:31.770Z,23.63
2018-08-27T12:02:41.191Z,23.63
2018-08-27T12:03:50.883Z,23.63
2018-08-27T12:05:00.043Z,23.7
2018-08-27T12:06:09.461Z,23.66
2018-08-27T12:07:18.359Z,23.68
2018-08-27T12:08:28.297Z,23.73
2018-08-27T12:09:37.470Z,23.63
2018-08-27T12:10:47.172Z,23.65
2018-08-27T12:11:56.863Z,23.69
2018-08-27T12:13:06.343Z,23.68
2018-08-27T12:14:15.782Z,23.68
2018-08-27T12:15:24.691Z,23.68
2018-08-27T12:16:34.115Z,23.75
2018-08-27T12:17:43.828Z,23.65
2018-08-27T12:18:53.508Z,23.63
2018-08-27T12:20:02.942Z,23.65
2018-08-27T12:21:12.116Z,23.66
2018-08-27T12:22:21.300Z,23.65
2018-08-27T12:23:30.466Z,23.63
2018-08-27T12:24:39.904Z,23.63
2018-08-27T12:25:49.596Z,23.73
2018-08-27T12:26:59.523Z,23.78
2018-08-27T12:28:08.953Z,23.68
2018-08-27T12:29:18.830Z,23.72
2018-08-27T12:30:27.676Z,23.76
2018-08-27T12:31:36.830Z,23.63
2018-08-27T12:32:46.775Z,23.75
2018-08-27T12:33:56.458Z,23.78
2018-08-27T12:35:05.876Z,23.76
2018-08-27T12:36:15.035Z,23.76
2018-08-27T12:37:24.970Z,23.72
2018-08-27T12:38:34.407Z,23.75
2018-08-27T12:39:43.822Z,23.73
2018-08-27T12:40:53.098Z,23.7
2018-08-27T12:42:02.959Z,23.8
2018-08-27T12:43:12.413Z,23.72
2018-08-27T12:44:22.091Z,23.7
2018-08-27T12:45:31.770Z,23.68
2018-08-27T12:46:41.454Z,23.69
2018-08-27T12:47:50.636Z,23.66
2018-08-27T12:48:59.796Z,23.76
2018-08-27T12:50:09.756Z,23.83
2018-08-27T12:51:19.790Z,23.7
2018-08-27T12:52:29.068Z,23.7
2018-08-27T12:53:38.228Z,23.7
2018-08-27T12:54:47.697Z,23.75
2018-08-27T12:55:56.867Z,23.66
2018-08-27T12:57:06.322Z,23.72
2018-08-27T12:58:16.052Z,23.72
2018-08-27T12:59:25.264Z,23.72
2018-08-27T13:00:34.691Z,23.75
2018-08-27T13:01:43.597Z,23.83
2018-08-27T13:02:53.535Z,23.68
2018-08-27T13:04:03.483Z,23.72
2018-08-27T13:05:12.921Z,23.69
2018-08-27T13:06:22.890Z,23.72
2018-08-27T13:07:32.105Z,23.69
2018-08-27T13:08:41.302Z,23.7
2018-08-27T13:09:51.242Z,23.7
2018-08-27T13:11:00.147Z,23.79
2018-08-27T13:12:09.312Z,23.7
2018-08-27T13:13:18.726Z,23.66
2018-08-27T13:14:28.397Z,23.69
2018-08-27T13:15:38.351Z,23.72
2018-08-27T13:16:48.046Z,23.83
2018-08-27T13:17:57.732Z,23.78
2018-08-27T13:19:06.949Z,23.73
2018-08-27T13:20:16.446Z,23.69
2018-08-27T13:21:26.122Z,23.72
2018-08-27T13:22:35.831Z,23.8
2018-08-27T13:23:45.254Z,23.87
2018-08-27T13:24:54.932Z,23.75
2018-08-27T13:26:04.723Z,23.85
2018-08-27T13:27:14.397Z,23.85
2018-08-27T13:28:23.565Z,23.79
2018-08-27T13:29:32.713Z,23.73
2018-08-27T13:30:42.160Z,23.8
2018-08-27T13:31:51.405Z,23.73
2018-08-27T13:33:00.865Z,23.76
2018-08-27T13:34:09.789Z,23.87
2018-08-27T13:35:18.697Z,23.8
2018-08-27T13:36:27.872Z,23.8
2018-08-27T13:37:37.043Z,23.87
2018-08-27T13:38:46.480Z,23.85
2018-08-27T13:39:55.646Z,23.72
2018-08-27T13:41:05.744Z,23.84
2018-08-27T13:42:15.440Z,23.8
2018-08-27T13:43:24.611Z,23.85
2018-08-27T13:44:33.767Z,23.75
2018-08-27T13:45:43.729Z,23.8
2018-08-27T13:46:52.906Z,23.76
2018-08-27T13:48:02.638Z,23.83
2018-08-27T13:49:12.074Z,23.85
2018-08-27T13:50:21.505Z,23.79
2018-08-27T13:51:30.929Z,23.79
2018-08-27T13:52:40.918Z,23.83
2018-08-27T13:53:50.146Z,23.87
2018-08-27T13:54:59.314Z,23.8
2018-08-27T13:56:08.217Z,23.84
2018-08-27T13:57:17.891Z,23.76
2018-08-27T13:58:26.804Z,23.97
2018-08-27T13:59:36.219Z,23.8
2018-08-27T14:00:45.699Z,23.87
2018-08-27T14:01:55.143Z,23.84
2018-08-27T14:03:04.578Z,23.85
2018-08-27T14:04:14.293Z,23.84
2018-08-27T14:05:23.939Z,23.88
2018-08-27T14:06:33.905Z,23.88
2018-08-27T14:07:43.601Z,23.79
2018-08-27T14:08:52.757Z,23.91
2018-08-27T14:10:02.702Z,23.79
2018-08-27T14:11:12.672Z,23.85
2018-08-27T14:12:22.261Z,23.85
2018-08-27T14:13:32.325Z,23.8
2018-08-27T14:14:41.826Z,23.83
2018-08-27T14:15:52.383Z,23.76
2018-08-27T14:17:02.053Z,23.79
2018-08-27T14:18:11.499Z,23.79
2018-08-27T14:19:21.641Z,23.83
2018-08-27T14:20:32.234Z,23.88
2018-08-27T14:21:42.377Z,23.83
2018-08-27T14:22:52.338Z,23.84
2018-08-27T14:24:01.771Z,23.85
2018-08-27T14:25:11.200Z,23.83
2018-08-27T14:26:20.280Z,23.9
2018-08-27T14:27:30.521Z,23.8
2018-08-27T14:28:39.965Z,23.87
2018-08-27T14:29:49.543Z,23.83
2018-08-27T14:30:59.843Z,23.9
2018-08-27T14:32:09.268Z,23.88
2018-08-27T14:33:19.287Z,23.88
2018-08-27T14:34:29.274Z,23.93
2018-08-27T14:35:38.849Z,23.9
2018-08-27T14:36:48.211Z,23.84
2018-08-27T14:37:57.894Z,23.9
2018-08-27T14:39:07.556Z,23.9
2018-08-27T14:40:16.823Z,23.9
2018-08-27T14:41:26.664Z,23.93
2018-08-27T14:42:36.742Z,23.91
2018-08-27T14:43:45.996Z,23.91
2018-08-27T14:44:56.094Z,23.95
2018-08-27T14:46:06.266Z,23.97
2018-08-27T14:47:15.693Z,23.95
2018-08-27T14:48:25.336Z,23.9
2018-08-27T14:49:34.753Z,23.93
2018-08-27T14:50:43.926Z,23.9
2018-08-27T14:51:52.638Z,23.9
2018-08-27T14:53:02.056Z,23.84
2018-08-27T14:54:11.757Z,23.85
2018-08-27T14:55:20.929Z,23.91
2018-08-27T14:56:30.105Z,23.91
2018-08-27T14:57:39.524Z,23.9
2018-08-27T14:58:49.211Z,23.85